sensor_id;sensor_type;location;lat;lon;timestamp;P1;durP1;ratioP1;P2;durP2;ratioP2
18114;SDS011;9184;54.390;18.620;2023-09-12T00:00:17;62.10;;;49.08;;
18114;SDS011;9184;54.390;18.620;2023-09-12T00:00:48;58.65;;;49.60;;
18114;SDS011;9184;54.390;18.620;2023-09-12T00:01:19;57.28;;;50.10;;
18114;SDS011;9184;54.390;18.620;2023-09-12T00:01:50;62.78;;;51.10;;
18114;SDS011;9184;54.390;18.620;2023-09-12T00:02:20;61.70;;;49.80;;
18114;SDS011;9184;54.390;18.620;2023-09-12T00:02:51;64.53;;;51.90;;
18114;SDS011;9184;54.390;18.620;2023-09-12T00:03:23;64.22;;;51.17;;
18114;SDS011;9184;54.390;18.620;2023-09-12T00:03:53;61.03;;;50.20;;
18114;SDS011;9184;54.390;18.620;2023-09-12T00:04:25;59.20;;;50.72;;
18114;SDS011;9184;54.390;18.620;2023-09-12T00:04:56;55.92;;;49.47;;
18114;SDS011;9184;54.390;18.620;2023-09-12T00:05:27;59.10;;;48.13;;
18114;SDS011;9184;54.390;18.620;2023-09-12T00:05:58;59.30;;;50.55;;
18114;SDS011;9184;54.390;18.620;2023-09-12T00:06:29;56.22;;;49.78;;
18114;SDS011;9184;54.390;18.620;2023-09-12T00:07:00;67.22;;;51.10;;
18114;SDS011;9184;54.390;18.620;2023-09-12T00:07:31;58.47;;;50.15;;
18114;SDS011;9184;54.390;18.620;2023-09-12T00:08:01;60.92;;;50.05;;
18114;SDS011;9184;54.390;18.620;2023-09-12T00:08:33;59.50;;;48.47;;
18114;SDS011;9184;54.390;18.620;2023-09-12T00:09:04;61.42;;;50.60;;
18114;SDS011;9184;54.390;18.620;2023-09-12T00:09:35;65.55;;;50.55;;
18114;SDS011;9184;54.390;18.620;2023-09-12T00:10:06;61.83;;;51.05;;
18114;SDS011;9184;54.390;18.620;2023-09-12T00:10:36;58.83;;;50.50;;
18114;SDS011;9184;54.390;18.620;2023-09-12T00:11:09;60.05;;;49.63;;
18114;SDS011;9184;54.390;18.620;2023-09-12T00:11:41;61.10;;;49.20;;
18114;SDS011;9184;54.390;18.620;2023-09-12T00:12:13;66.28;;;52.83;;
18114;SDS011;9184;54.390;18.620;2023-09-12T00:12:45;58.53;;;50.40;;
18114;SDS011;9184;54.390;18.620;2023-09-12T00:13:15;59.60;;;50.05;;
18114;SDS011;9184;54.390;18.620;2023-09-12T00:13:46;58.05;;;48.65;;
18114;SDS011;9184;54.390;18.620;2023-09-12T00:14:17;64.90;;;51.83;;
18114;SDS011;9184;54.390;18.620;2023-09-12T00:14:48;63.10;;;52.55;;
18114;SDS011;9184;54.390;18.620;2023-09-12T00:15:18;61.40;;;51.38;;
18114;SDS011;9184;54.390;18.620;2023-09-12T00:15:49;58.85;;;49.03;;
18114;SDS011;9184;54.390;18.620;2023-09-12T00:16:21;60.50;;;50.13;;
18114;SDS011;9184;54.390;18.620;2023-09-12T00:16:51;63.63;;;52.38;;
18114;SDS011;9184;54.390;18.620;2023-09-12T00:17:25;60.70;;;51.28;;
18114;SDS011;9184;54.390;18.620;2023-09-12T00:17:57;64.45;;;51.65;;
18114;SDS011;9184;54.390;18.620;2023-09-12T00:18:27;61.72;;;51.05;;
18114;SDS011;9184;54.390;18.620;2023-09-12T00:18:58;59.08;;;51.55;;
18114;SDS011;9184;54.390;18.620;2023-09-12T00:19:29;62.28;;;49.33;;
18114;SDS011;9184;54.390;18.620;2023-09-12T00:20:01;63.33;;;51.50;;
18114;SDS011;9184;54.390;18.620;2023-09-12T00:20:32;62.85;;;49.92;;
18114;SDS011;9184;54.390;18.620;2023-09-12T00:21:03;56.08;;;49.17;;
18114;SDS011;9184;54.390;18.620;2023-09-12T00:21:34;61.03;;;48.60;;
18114;SDS011;9184;54.390;18.620;2023-09-12T00:22:05;58.20;;;48.80;;
18114;SDS011;9184;54.390;18.620;2023-09-12T00:22:36;55.88;;;47.22;;
18114;SDS011;9184;54.390;18.620;2023-09-12T00:23:06;57.35;;;46.30;;
18114;SDS011;9184;54.390;18.620;2023-09-12T00:23:37;60.28;;;49.08;;
18114;SDS011;9184;54.390;18.620;2023-09-12T00:24:08;61.17;;;49.00;;
18114;SDS011;9184;54.390;18.620;2023-09-12T00:24:38;56.03;;;46.75;;
18114;SDS011;9184;54.390;18.620;2023-09-12T00:25:09;59.63;;;48.53;;
18114;SDS011;9184;54.390;18.620;2023-09-12T00:25:39;61.38;;;49.53;;
18114;SDS011;9184;54.390;18.620;2023-09-12T00:26:11;61.42;;;49.60;;
18114;SDS011;9184;54.390;18.620;2023-09-12T00:26:41;57.40;;;49.72;;
18114;SDS011;9184;54.390;18.620;2023-09-12T00:27:12;58.40;;;49.55;;
18114;SDS011;9184;54.390;18.620;2023-09-12T00:27:45;62.85;;;49.08;;
18114;SDS011;9184;54.390;18.620;2023-09-12T00:28:16;63.63;;;50.38;;
18114;SDS011;9184;54.390;18.620;2023-09-12T00:28:47;56.92;;;49.55;;
18114;SDS011;9184;54.390;18.620;2023-09-12T00:29:17;58.28;;;48.30;;
18114;SDS011;9184;54.390;18.620;2023-09-12T00:29:48;60.70;;;50.10;;
18114;SDS011;9184;54.390;18.620;2023-09-12T00:30:19;63.13;;;50.38;;
18114;SDS011;9184;54.390;18.620;2023-09-12T00:30:50;56.17;;;46.30;;
18114;SDS011;9184;54.390;18.620;2023-09-12T00:31:21;58.80;;;48.00;;
18114;SDS011;9184;54.390;18.620;2023-09-12T00:31:52;56.35;;;48.67;;
18114;SDS011;9184;54.390;18.620;2023-09-12T00:32:23;59.70;;;48.25;;
18114;SDS011;9184;54.390;18.620;2023-09-12T00:32:54;59.78;;;48.63;;
18114;SDS011;9184;54.390;18.620;2023-09-12T00:33:24;57.00;;;48.97;;
18114;SDS011;9184;54.390;18.620;2023-09-12T00:33:55;58.50;;;48.83;;
18114;SDS011;9184;54.390;18.620;2023-09-12T00:34:26;59.13;;;50.60;;
18114;SDS011;9184;54.390;18.620;2023-09-12T00:34:58;59.63;;;49.33;;
18114;SDS011;9184;54.390;18.620;2023-09-12T00:35:28;66.60;;;52.35;;
18114;SDS011;9184;54.390;18.620;2023-09-12T00:36:00;64.40;;;51.38;;
18114;SDS011;9184;54.390;18.620;2023-09-12T00:36:30;62.28;;;51.58;;
18114;SDS011;9184;54.390;18.620;2023-09-12T00:37:03;62.25;;;49.33;;
18114;SDS011;9184;54.390;18.620;2023-09-12T00:37:35;55.97;;;49.33;;
18114;SDS011;9184;54.390;18.620;2023-09-12T00:38:08;62.90;;;50.28;;
18114;SDS011;9184;54.390;18.620;2023-09-12T00:38:38;57.97;;;49.05;;
18114;SDS011;9184;54.390;18.620;2023-09-12T00:39:09;60.10;;;51.67;;
18114;SDS011;9184;54.390;18.620;2023-09-12T00:39:40;59.33;;;49.38;;
18114;SDS011;9184;54.390;18.620;2023-09-12T00:40:11;56.63;;;49.40;;
18114;SDS011;9184;54.390;18.620;2023-09-12T00:40:42;60.20;;;50.38;;
18114;SDS011;9184;54.390;18.620;2023-09-12T00:41:12;64.45;;;49.03;;
18114;SDS011;9184;54.390;18.620;2023-09-12T00:41:44;58.75;;;49.55;;
18114;SDS011;9184;54.390;18.620;2023-09-12T00:42:14;66.93;;;49.55;;
18114;SDS011;9184;54.390;18.620;2023-09-12T00:42:45;59.22;;;49.03;;
18114;SDS011;9184;54.390;18.620;2023-09-12T00:43:15;57.65;;;47.97;;
18114;SDS011;9184;54.390;18.620;2023-09-12T00:43:47;58.33;;;48.95;;
18114;SDS011;9184;54.390;18.620;2023-09-12T00:44:17;57.25;;;47.92;;
18114;SDS011;9184;54.390;18.620;2023-09-12T00:44:48;61.28;;;50.53;;
18114;SDS011;9184;54.390;18.620;2023-09-12T00:45:18;64.10;;;51.00;;
18114;SDS011;9184;54.390;18.620;2023-09-12T00:45:49;59.10;;;49.88;;
18114;SDS011;9184;54.390;18.620;2023-09-12T00:46:20;57.60;;;48.65;;
18114;SDS011;9184;54.390;18.620;2023-09-12T00:46:52;65.28;;;47.92;;
18114;SDS011;9184;54.390;18.620;2023-09-12T00:47:23;54.83;;;48.08;;
18114;SDS011;9184;54.390;18.620;2023-09-12T00:47:54;55.42;;;46.78;;
18114;SDS011;9184;54.390;18.620;2023-09-12T00:48:26;59.70;;;47.45;;
18114;SDS011;9184;54.390;18.620;2023-09-12T00:48:56;56.92;;;47.38;;
18114;SDS011;9184;54.390;18.620;2023-09-12T00:49:27;56.17;;;46.92;;
18114;SDS011;9184;54.390;18.620;2023-09-12T00:49:59;62.63;;;48.85;;
18114;SDS011;9184;54.390;18.620;2023-09-12T00:50:31;59.83;;;47.53;;
18114;SDS011;9184;54.390;18.620;2023-09-12T00:51:02;54.70;;;48.17;;
18114;SDS011;9184;54.390;18.620;2023-09-12T00:51:33;60.33;;;47.40;;
18114;SDS011;9184;54.390;18.620;2023-09-12T00:52:04;57.03;;;46.53;;
18114;SDS011;9184;54.390;18.620;2023-09-12T00:52:36;54.30;;;46.03;;
18114;SDS011;9184;54.390;18.620;2023-09-12T00:53:07;59.10;;;47.58;;
18114;SDS011;9184;54.390;18.620;2023-09-12T00:53:38;58.08;;;47.65;;
18114;SDS011;9184;54.390;18.620;2023-09-12T00:54:08;56.40;;;47.00;;
18114;SDS011;9184;54.390;18.620;2023-09-12T00:54:40;55.17;;;46.42;;
18114;SDS011;9184;54.390;18.620;2023-09-12T00:55:11;56.25;;;47.75;;
18114;SDS011;9184;54.390;18.620;2023-09-12T00:55:42;58.60;;;47.85;;
18114;SDS011;9184;54.390;18.620;2023-09-12T00:56:14;55.22;;;46.13;;
18114;SDS011;9184;54.390;18.620;2023-09-12T00:56:46;58.67;;;49.00;;
18114;SDS011;9184;54.390;18.620;2023-09-12T00:57:16;57.13;;;49.20;;
18114;SDS011;9184;54.390;18.620;2023-09-12T00:57:47;60.03;;;46.13;;
18114;SDS011;9184;54.390;18.620;2023-09-12T00:58:17;59.80;;;48.40;;
18114;SDS011;9184;54.390;18.620;2023-09-12T00:58:49;55.47;;;48.10;;
18114;SDS011;9184;54.390;18.620;2023-09-12T00:59:21;61.80;;;49.13;;
18114;SDS011;9184;54.390;18.620;2023-09-12T00:59:52;55.15;;;46.63;;
18114;SDS011;9184;54.390;18.620;2023-09-12T01:00:24;58.83;;;49.92;;
18114;SDS011;9184;54.390;18.620;2023-09-12T01:00:55;59.13;;;49.00;;
18114;SDS011;9184;54.390;18.620;2023-09-12T01:01:26;58.20;;;48.67;;
18114;SDS011;9184;54.390;18.620;2023-09-12T01:01:58;57.13;;;46.40;;
18114;SDS011;9184;54.390;18.620;2023-09-12T01:02:28;58.47;;;47.13;;
18114;SDS011;9184;54.390;18.620;2023-09-12T01:02:59;53.03;;;47.13;;
18114;SDS011;9184;54.390;18.620;2023-09-12T01:03:30;54.28;;;47.90;;
18114;SDS011;9184;54.390;18.620;2023-09-12T01:04:02;58.70;;;47.58;;
18114;SDS011;9184;54.390;18.620;2023-09-12T01:04:33;55.90;;;44.45;;
18114;SDS011;9184;54.390;18.620;2023-09-12T01:05:06;52.50;;;44.50;;
18114;SDS011;9184;54.390;18.620;2023-09-12T01:05:37;53.75;;;45.85;;
18114;SDS011;9184;54.390;18.620;2023-09-12T01:06:08;54.05;;;46.60;;
18114;SDS011;9184;54.390;18.620;2023-09-12T01:06:39;63.95;;;46.55;;
18114;SDS011;9184;54.390;18.620;2023-09-12T01:07:10;55.60;;;47.63;;
18114;SDS011;9184;54.390;18.620;2023-09-12T01:07:41;54.63;;;48.60;;
18114;SDS011;9184;54.390;18.620;2023-09-12T01:08:12;55.97;;;47.80;;
18114;SDS011;9184;54.390;18.620;2023-09-12T01:08:43;58.97;;;48.17;;
18114;SDS011;9184;54.390;18.620;2023-09-12T01:09:13;56.53;;;46.95;;
18114;SDS011;9184;54.390;18.620;2023-09-12T01:09:44;57.05;;;48.25;;
18114;SDS011;9184;54.390;18.620;2023-09-12T01:10:16;56.83;;;46.25;;
18114;SDS011;9184;54.390;18.620;2023-09-12T01:10:46;60.75;;;49.50;;
18114;SDS011;9184;54.390;18.620;2023-09-12T01:11:18;59.20;;;50.38;;
18114;SDS011;9184;54.390;18.620;2023-09-12T01:11:48;59.53;;;49.78;;
18114;SDS011;9184;54.390;18.620;2023-09-12T01:12:20;57.63;;;49.72;;
18114;SDS011;9184;54.390;18.620;2023-09-12T01:12:50;53.92;;;48.03;;
18114;SDS011;9184;54.390;18.620;2023-09-12T01:13:22;56.53;;;47.90;;
18114;SDS011;9184;54.390;18.620;2023-09-12T01:13:53;55.03;;;46.28;;
18114;SDS011;9184;54.390;18.620;2023-09-12T01:14:24;55.13;;;45.63;;
18114;SDS011;9184;54.390;18.620;2023-09-12T01:14:55;58.30;;;46.95;;
18114;SDS011;9184;54.390;18.620;2023-09-12T01:15:25;55.67;;;46.05;;
18114;SDS011;9184;54.390;18.620;2023-09-12T01:15:56;55.40;;;47.08;;
18114;SDS011;9184;54.390;18.620;2023-09-12T01:16:27;57.30;;;45.90;;
18114;SDS011;9184;54.390;18.620;2023-09-12T01:16:58;58.85;;;46.83;;
18114;SDS011;9184;54.390;18.620;2023-09-12T01:17:29;60.00;;;47.70;;
18114;SDS011;9184;54.390;18.620;2023-09-12T01:18:00;54.15;;;45.38;;
18114;SDS011;9184;54.390;18.620;2023-09-12T01:18:31;55.72;;;46.53;;
18114;SDS011;9184;54.390;18.620;2023-09-12T01:19:02;56.60;;;45.83;;
18114;SDS011;9184;54.390;18.620;2023-09-12T01:19:33;56.47;;;47.60;;
18114;SDS011;9184;54.390;18.620;2023-09-12T01:20:04;56.95;;;46.55;;
18114;SDS011;9184;54.390;18.620;2023-09-12T01:20:39;54.72;;;46.83;;
18114;SDS011;9184;54.390;18.620;2023-09-12T01:21:19;56.53;;;45.33;;
18114;SDS011;9184;54.390;18.620;2023-09-12T01:22:01;58.42;;;48.30;;
18114;SDS011;9184;54.390;18.620;2023-09-12T01:22:43;59.45;;;46.15;;
18114;SDS011;9184;54.390;18.620;2023-09-12T01:23:21;53.78;;;45.67;;
18114;SDS011;9184;54.390;18.620;2023-09-12T01:23:58;54.08;;;47.53;;
18114;SDS011;9184;54.390;18.620;2023-09-12T01:25:28;55.47;;;45.85;;
18114;SDS011;9184;54.390;18.620;2023-09-12T01:26:16;57.72;;;45.33;;
18114;SDS011;9184;54.390;18.620;2023-09-12T01:26:49;56.22;;;46.05;;
18114;SDS011;9184;54.390;18.620;2023-09-12T01:27:27;54.50;;;43.90;;
18114;SDS011;9184;54.390;18.620;2023-09-12T01:27:58;52.75;;;44.17;;
18114;SDS011;9184;54.390;18.620;2023-09-12T01:28:31;58.60;;;44.42;;
18114;SDS011;9184;54.390;18.620;2023-09-12T01:29:04;53.35;;;44.30;;
18114;SDS011;9184;54.390;18.620;2023-09-12T01:29:36;55.75;;;45.47;;
18114;SDS011;9184;54.390;18.620;2023-09-12T01:30:07;51.58;;;43.17;;
18114;SDS011;9184;54.390;18.620;2023-09-12T01:30:40;59.70;;;45.17;;
18114;SDS011;9184;54.390;18.620;2023-09-12T01:31:12;61.70;;;46.95;;
18114;SDS011;9184;54.390;18.620;2023-09-12T01:31:44;56.58;;;46.65;;
18114;SDS011;9184;54.390;18.620;2023-09-12T01:32:15;52.97;;;45.63;;
18114;SDS011;9184;54.390;18.620;2023-09-12T01:32:48;55.20;;;46.25;;
18114;SDS011;9184;54.390;18.620;2023-09-12T01:33:18;59.10;;;47.88;;
18114;SDS011;9184;54.390;18.620;2023-09-12T01:33:50;56.58;;;45.72;;
18114;SDS011;9184;54.390;18.620;2023-09-12T01:34:25;52.45;;;44.70;;
18114;SDS011;9184;54.390;18.620;2023-09-12T01:34:56;53.35;;;43.85;;
18114;SDS011;9184;54.390;18.620;2023-09-12T01:35:26;55.08;;;45.65;;
18114;SDS011;9184;54.390;18.620;2023-09-12T01:35:56;56.78;;;47.63;;
18114;SDS011;9184;54.390;18.620;2023-09-12T01:36:28;55.47;;;46.28;;
18114;SDS011;9184;54.390;18.620;2023-09-12T01:36:58;55.30;;;45.35;;
18114;SDS011;9184;54.390;18.620;2023-09-12T01:37:29;50.35;;;42.17;;
18114;SDS011;9184;54.390;18.620;2023-09-12T01:38:00;50.45;;;44.08;;
18114;SDS011;9184;54.390;18.620;2023-09-12T01:38:31;52.08;;;43.92;;
18114;SDS011;9184;54.390;18.620;2023-09-12T01:39:02;52.20;;;42.80;;
18114;SDS011;9184;54.390;18.620;2023-09-12T01:39:32;54.40;;;44.20;;
18114;SDS011;9184;54.390;18.620;2023-09-12T01:40:03;52.97;;;45.20;;
18114;SDS011;9184;54.390;18.620;2023-09-12T01:40:37;50.58;;;43.80;;
18114;SDS011;9184;54.390;18.620;2023-09-12T01:41:09;55.10;;;45.35;;
18114;SDS011;9184;54.390;18.620;2023-09-12T01:41:40;58.08;;;46.28;;
18114;SDS011;9184;54.390;18.620;2023-09-12T01:42:13;55.10;;;45.20;;
18114;SDS011;9184;54.390;18.620;2023-09-12T01:42:45;52.05;;;43.00;;
18114;SDS011;9184;54.390;18.620;2023-09-12T01:43:17;56.67;;;45.28;;
18114;SDS011;9184;54.390;18.620;2023-09-12T01:43:49;49.55;;;43.35;;
18114;SDS011;9184;54.390;18.620;2023-09-12T01:44:20;53.75;;;45.40;;
18114;SDS011;9184;54.390;18.620;2023-09-12T01:44:54;55.95;;;45.08;;
18114;SDS011;9184;54.390;18.620;2023-09-12T01:45:26;50.47;;;42.83;;
18114;SDS011;9184;54.390;18.620;2023-09-12T01:45:58;52.75;;;43.58;;
18114;SDS011;9184;54.390;18.620;2023-09-12T01:46:29;50.45;;;42.55;;
18114;SDS011;9184;54.390;18.620;2023-09-12T01:47:02;53.33;;;43.33;;
18114;SDS011;9184;54.390;18.620;2023-09-12T01:47:34;50.38;;;43.35;;
18114;SDS011;9184;54.390;18.620;2023-09-12T01:48:06;53.95;;;44.58;;
18114;SDS011;9184;54.390;18.620;2023-09-12T01:48:36;51.85;;;43.47;;
18114;SDS011;9184;54.390;18.620;2023-09-12T01:49:08;57.08;;;44.55;;
18114;SDS011;9184;54.390;18.620;2023-09-12T01:49:41;56.00;;;45.00;;
18114;SDS011;9184;54.390;18.620;2023-09-12T01:50:12;51.08;;;43.38;;
18114;SDS011;9184;54.390;18.620;2023-09-12T01:50:43;54.03;;;43.00;;
18114;SDS011;9184;54.390;18.620;2023-09-12T01:51:15;50.70;;;42.38;;
18114;SDS011;9184;54.390;18.620;2023-09-12T01:51:45;49.83;;;42.22;;
18114;SDS011;9184;54.390;18.620;2023-09-12T01:52:16;51.53;;;42.60;;
18114;SDS011;9184;54.390;18.620;2023-09-12T01:52:47;53.60;;;43.40;;
18114;SDS011;9184;54.390;18.620;2023-09-12T01:53:18;51.88;;;44.03;;
18114;SDS011;9184;54.390;18.620;2023-09-12T01:53:49;47.53;;;41.80;;
18114;SDS011;9184;54.390;18.620;2023-09-12T01:54:20;49.30;;;42.60;;
18114;SDS011;9184;54.390;18.620;2023-09-12T01:54:51;49.90;;;42.25;;
18114;SDS011;9184;54.390;18.620;2023-09-12T01:55:24;51.97;;;43.95;;
18114;SDS011;9184;54.390;18.620;2023-09-12T01:55:55;50.45;;;43.53;;
18114;SDS011;9184;54.390;18.620;2023-09-12T01:56:26;48.20;;;40.20;;
18114;SDS011;9184;54.390;18.620;2023-09-12T01:56:57;46.90;;;39.95;;
18114;SDS011;9184;54.390;18.620;2023-09-12T01:57:29;49.70;;;40.35;;
18114;SDS011;9184;54.390;18.620;2023-09-12T01:58:02;47.05;;;41.60;;
18114;SDS011;9184;54.390;18.620;2023-09-12T01:58:33;49.97;;;42.10;;
18114;SDS011;9184;54.390;18.620;2023-09-12T01:59:03;55.90;;;43.45;;
18114;SDS011;9184;54.390;18.620;2023-09-12T01:59:34;48.75;;;41.83;;
18114;SDS011;9184;54.390;18.620;2023-09-12T02:00:06;47.85;;;41.08;;
18114;SDS011;9184;54.390;18.620;2023-09-12T02:00:37;48.55;;;41.88;;
18114;SDS011;9184;54.390;18.620;2023-09-12T02:01:07;50.53;;;42.00;;
18114;SDS011;9184;54.390;18.620;2023-09-12T02:01:38;51.20;;;43.33;;
18114;SDS011;9184;54.390;18.620;2023-09-12T02:02:09;56.90;;;42.75;;
18114;SDS011;9184;54.390;18.620;2023-09-12T02:02:40;49.97;;;40.70;;
18114;SDS011;9184;54.390;18.620;2023-09-12T02:03:12;51.17;;;41.55;;
18114;SDS011;9184;54.390;18.620;2023-09-12T02:03:42;51.63;;;41.67;;
18114;SDS011;9184;54.390;18.620;2023-09-12T02:04:12;51.72;;;43.85;;
18114;SDS011;9184;54.390;18.620;2023-09-12T02:04:45;48.70;;;41.22;;
18114;SDS011;9184;54.390;18.620;2023-09-12T02:05:17;45.78;;;40.80;;
18114;SDS011;9184;54.390;18.620;2023-09-12T02:05:48;46.53;;;40.55;;
18114;SDS011;9184;54.390;18.620;2023-09-12T02:06:19;49.05;;;39.47;;
18114;SDS011;9184;54.390;18.620;2023-09-12T02:06:50;44.85;;;38.25;;
18114;SDS011;9184;54.390;18.620;2023-09-12T02:07:21;47.55;;;40.13;;
18114;SDS011;9184;54.390;18.620;2023-09-12T02:07:53;45.10;;;40.15;;
18114;SDS011;9184;54.390;18.620;2023-09-12T02:08:24;50.50;;;40.85;;
18114;SDS011;9184;54.390;18.620;2023-09-12T02:08:55;44.58;;;39.40;;
18114;SDS011;9184;54.390;18.620;2023-09-12T02:09:25;44.83;;;39.40;;
18114;SDS011;9184;54.390;18.620;2023-09-12T02:09:56;45.13;;;39.72;;
18114;SDS011;9184;54.390;18.620;2023-09-12T02:10:26;45.60;;;38.50;;
18114;SDS011;9184;54.390;18.620;2023-09-12T02:10:57;45.83;;;38.78;;
18114;SDS011;9184;54.390;18.620;2023-09-12T02:11:28;43.50;;;38.83;;
18114;SDS011;9184;54.390;18.620;2023-09-12T02:11:59;43.65;;;38.95;;
18114;SDS011;9184;54.390;18.620;2023-09-12T02:12:29;46.08;;;38.20;;
18114;SDS011;9184;54.390;18.620;2023-09-12T02:13:00;45.28;;;39.53;;
18114;SDS011;9184;54.390;18.620;2023-09-12T02:13:32;44.35;;;38.50;;
18114;SDS011;9184;54.390;18.620;2023-09-12T02:14:03;46.55;;;39.00;;
18114;SDS011;9184;54.390;18.620;2023-09-12T02:14:33;45.85;;;40.55;;
18114;SDS011;9184;54.390;18.620;2023-09-12T02:15:04;44.47;;;39.50;;
18114;SDS011;9184;54.390;18.620;2023-09-12T02:15:36;48.35;;;39.33;;
18114;SDS011;9184;54.390;18.620;2023-09-12T02:16:06;46.88;;;40.13;;
18114;SDS011;9184;54.390;18.620;2023-09-12T02:16:37;46.42;;;40.22;;
18114;SDS011;9184;54.390;18.620;2023-09-12T02:17:09;47.33;;;40.10;;
18114;SDS011;9184;54.390;18.620;2023-09-12T02:17:39;47.70;;;40.22;;
18114;SDS011;9184;54.390;18.620;2023-09-12T02:18:10;45.65;;;40.45;;
18114;SDS011;9184;54.390;18.620;2023-09-12T02:18:41;50.38;;;39.97;;
18114;SDS011;9184;54.390;18.620;2023-09-12T02:19:12;47.03;;;39.92;;
18114;SDS011;9184;54.390;18.620;2023-09-12T02:19:42;46.13;;;39.25;;
18114;SDS011;9184;54.390;18.620;2023-09-12T02:20:12;43.22;;;38.72;;
18114;SDS011;9184;54.390;18.620;2023-09-12T02:20:44;50.50;;;42.35;;
18114;SDS011;9184;54.390;18.620;2023-09-12T02:21:16;43.92;;;38.03;;
18114;SDS011;9184;54.390;18.620;2023-09-12T02:21:46;42.72;;;38.10;;
18114;SDS011;9184;54.390;18.620;2023-09-12T02:22:17;47.35;;;39.85;;
18114;SDS011;9184;54.390;18.620;2023-09-12T02:22:47;45.47;;;39.35;;
18114;SDS011;9184;54.390;18.620;2023-09-12T02:23:19;45.75;;;39.28;;
18114;SDS011;9184;54.390;18.620;2023-09-12T02:23:49;47.63;;;39.97;;
18114;SDS011;9184;54.390;18.620;2023-09-12T02:24:20;49.20;;;38.70;;
18114;SDS011;9184;54.390;18.620;2023-09-12T02:24:51;45.65;;;38.55;;
18114;SDS011;9184;54.390;18.620;2023-09-12T02:25:23;42.55;;;37.60;;
18114;SDS011;9184;54.390;18.620;2023-09-12T02:25:53;49.83;;;39.70;;
18114;SDS011;9184;54.390;18.620;2023-09-12T02:26:23;49.17;;;39.97;;
18114;SDS011;9184;54.390;18.620;2023-09-12T02:26:54;43.80;;;38.45;;
18114;SDS011;9184;54.390;18.620;2023-09-12T02:27:25;45.83;;;37.65;;
18114;SDS011;9184;54.390;18.620;2023-09-12T02:27:56;46.20;;;37.55;;
18114;SDS011;9184;54.390;18.620;2023-09-12T02:28:26;48.92;;;39.80;;
18114;SDS011;9184;54.390;18.620;2023-09-12T02:28:58;50.33;;;40.80;;
18114;SDS011;9184;54.390;18.620;2023-09-12T02:29:30;44.80;;;39.17;;
18114;SDS011;9184;54.390;18.620;2023-09-12T02:30:02;47.33;;;39.05;;
18114;SDS011;9184;54.390;18.620;2023-09-12T02:30:33;48.08;;;38.88;;
18114;SDS011;9184;54.390;18.620;2023-09-12T02:31:05;43.85;;;39.08;;
18114;SDS011;9184;54.390;18.620;2023-09-12T02:31:40;45.72;;;39.47;;
18114;SDS011;9184;54.390;18.620;2023-09-12T02:32:11;42.15;;;37.47;;
18114;SDS011;9184;54.390;18.620;2023-09-12T02:32:41;47.50;;;38.67;;
18114;SDS011;9184;54.390;18.620;2023-09-12T02:33:12;41.33;;;36.88;;
18114;SDS011;9184;54.390;18.620;2023-09-12T02:33:43;47.83;;;39.45;;
18114;SDS011;9184;54.390;18.620;2023-09-12T02:34:13;48.28;;;40.85;;
18114;SDS011;9184;54.390;18.620;2023-09-12T02:34:44;45.63;;;40.08;;
18114;SDS011;9184;54.390;18.620;2023-09-12T02:35:14;46.67;;;40.25;;
18114;SDS011;9184;54.390;18.620;2023-09-12T02:35:46;45.08;;;39.35;;
18114;SDS011;9184;54.390;18.620;2023-09-12T02:36:16;47.22;;;38.90;;
18114;SDS011;9184;54.390;18.620;2023-09-12T02:36:47;43.78;;;38.38;;
18114;SDS011;9184;54.390;18.620;2023-09-12T02:37:17;43.58;;;37.17;;
18114;SDS011;9184;54.390;18.620;2023-09-12T02:37:47;40.35;;;35.20;;
18114;SDS011;9184;54.390;18.620;2023-09-12T02:38:19;42.95;;;38.05;;
18114;SDS011;9184;54.390;18.620;2023-09-12T02:38:49;44.65;;;37.95;;
18114;SDS011;9184;54.390;18.620;2023-09-12T02:39:20;46.83;;;38.40;;
18114;SDS011;9184;54.390;18.620;2023-09-12T02:39:50;48.28;;;40.72;;
18114;SDS011;9184;54.390;18.620;2023-09-12T02:40:22;49.10;;;39.40;;
18114;SDS011;9184;54.390;18.620;2023-09-12T02:40:52;42.83;;;37.20;;
18114;SDS011;9184;54.390;18.620;2023-09-12T02:41:23;45.00;;;37.63;;
18114;SDS011;9184;54.390;18.620;2023-09-12T02:41:53;42.63;;;38.00;;
18114;SDS011;9184;54.390;18.620;2023-09-12T02:42:25;42.25;;;36.88;;
18114;SDS011;9184;54.390;18.620;2023-09-12T02:42:55;44.25;;;37.42;;
18114;SDS011;9184;54.390;18.620;2023-09-12T02:43:26;47.03;;;37.85;;
18114;SDS011;9184;54.390;18.620;2023-09-12T02:43:56;40.60;;;36.17;;
18114;SDS011;9184;54.390;18.620;2023-09-12T02:44:28;40.50;;;35.70;;
18114;SDS011;9184;54.390;18.620;2023-09-12T02:45:00;44.15;;;35.95;;
18114;SDS011;9184;54.390;18.620;2023-09-12T02:45:30;41.53;;;37.05;;
18114;SDS011;9184;54.390;18.620;2023-09-12T02:46:00;42.65;;;38.00;;
18114;SDS011;9184;54.390;18.620;2023-09-12T02:46:31;43.35;;;36.35;;
18114;SDS011;9184;54.390;18.620;2023-09-12T02:47:03;41.45;;;35.95;;
18114;SDS011;9184;54.390;18.620;2023-09-12T02:47:33;45.92;;;39.80;;
18114;SDS011;9184;54.390;18.620;2023-09-12T02:48:04;41.88;;;37.05;;
18114;SDS011;9184;54.390;18.620;2023-09-12T02:48:34;46.92;;;38.42;;
18114;SDS011;9184;54.390;18.620;2023-09-12T02:49:06;41.10;;;36.63;;
18114;SDS011;9184;54.390;18.620;2023-09-12T02:49:36;43.83;;;37.95;;
18114;SDS011;9184;54.390;18.620;2023-09-12T02:50:07;42.00;;;36.92;;
18114;SDS011;9184;54.390;18.620;2023-09-12T02:50:38;42.08;;;37.15;;
18114;SDS011;9184;54.390;18.620;2023-09-12T02:51:09;50.05;;;37.58;;
18114;SDS011;9184;54.390;18.620;2023-09-12T02:51:40;44.92;;;35.58;;
18114;SDS011;9184;54.390;18.620;2023-09-12T02:52:11;43.97;;;36.55;;
18114;SDS011;9184;54.390;18.620;2023-09-12T02:52:41;43.17;;;35.65;;
18114;SDS011;9184;54.390;18.620;2023-09-12T02:53:13;43.10;;;36.85;;
18114;SDS011;9184;54.390;18.620;2023-09-12T02:53:43;41.40;;;36.15;;
18114;SDS011;9184;54.390;18.620;2023-09-12T02:54:14;43.22;;;37.05;;
18114;SDS011;9184;54.390;18.620;2023-09-12T02:54:45;45.55;;;37.58;;
18114;SDS011;9184;54.390;18.620;2023-09-12T02:55:16;42.08;;;36.95;;
18114;SDS011;9184;54.390;18.620;2023-09-12T02:55:46;40.53;;;36.10;;
18114;SDS011;9184;54.390;18.620;2023-09-12T02:56:17;42.35;;;35.58;;
18114;SDS011;9184;54.390;18.620;2023-09-12T02:56:48;42.72;;;35.80;;
18114;SDS011;9184;54.390;18.620;2023-09-12T02:57:19;41.20;;;35.47;;
18114;SDS011;9184;54.390;18.620;2023-09-12T02:57:49;40.70;;;35.53;;
18114;SDS011;9184;54.390;18.620;2023-09-12T02:58:20;43.70;;;35.83;;
18114;SDS011;9184;54.390;18.620;2023-09-12T02:58:51;41.33;;;35.00;;
18114;SDS011;9184;54.390;18.620;2023-09-12T02:59:22;39.38;;;35.08;;
18114;SDS011;9184;54.390;18.620;2023-09-12T02:59:53;40.92;;;36.50;;
18114;SDS011;9184;54.390;18.620;2023-09-12T03:00:24;38.75;;;34.53;;
18114;SDS011;9184;54.390;18.620;2023-09-12T03:00:55;46.78;;;35.78;;
18114;SDS011;9184;54.390;18.620;2023-09-12T03:01:26;40.67;;;34.20;;
18114;SDS011;9184;54.390;18.620;2023-09-12T03:01:58;37.83;;;33.28;;
18114;SDS011;9184;54.390;18.620;2023-09-12T03:02:28;40.33;;;33.63;;
18114;SDS011;9184;54.390;18.620;2023-09-12T03:03:01;44.22;;;36.22;;
18114;SDS011;9184;54.390;18.620;2023-09-12T03:03:31;41.38;;;33.17;;
18114;SDS011;9184;54.390;18.620;2023-09-12T03:04:01;37.72;;;33.67;;